createdAt,value
2019-03-30T00:00:37.321Z,17.73
2019-03-30T00:03:11.378Z,15.50
2019-03-30T00:05:39.970Z,15.77
2019-03-30T00:08:08.527Z,19.40
2019-03-30T00:10:37.117Z,18.20
2019-03-30T00:13:05.665Z,16.33
2019-03-30T00:15:34.659Z,20.70
2019-03-30T00:18:03.215Z,17.27
2019-03-30T00:20:31.794Z,18.83
2019-03-30T00:23:00.371Z,16.73
2019-03-30T00:25:29.088Z,25.87
2019-03-30T00:27:57.679Z,19.43
2019-03-30T00:30:26.638Z,16.40
2019-03-30T00:32:55.226Z,16.10
2019-03-30T00:35:23.773Z,13.73
2019-03-30T00:37:52.363Z,15.17
2019-03-30T00:40:20.934Z,18.67
2019-03-30T00:42:50.258Z,13.40
2019-03-30T00:45:18.817Z,17.83
2019-03-30T00:47:47.417Z,14.93
2019-03-30T00:50:18.777Z,16.93
2019-03-30T00:52:47.523Z,19.20
2019-03-30T00:55:19.111Z,17.37
2019-03-30T00:57:47.695Z,18.13
2019-03-30T01:00:16.690Z,15.23
2019-03-30T01:02:47.983Z,16.53
2019-03-30T01:05:18.079Z,15.70
2019-03-30T01:07:49.837Z,20.97
2019-03-30T01:10:18.402Z,23.43
2019-03-30T01:12:47.159Z,20.27
2019-03-30T01:15:17.376Z,21.07
2019-03-30T01:17:46.126Z,25.23
2019-03-30T01:20:15.126Z,21.07
2019-03-30T01:22:45.615Z,21.40
2019-03-30T01:25:15.267Z,21.63
2019-03-30T01:27:43.860Z,20.10
2019-03-30T01:30:22.998Z,24.10
2019-03-30T01:32:43.366Z,23.20
2019-03-30T01:35:12.527Z,22.73
2019-03-30T01:37:41.144Z,21.20
2019-03-30T01:40:09.944Z,19.40
2019-03-30T01:42:38.526Z,26.17
2019-03-30T01:45:08.497Z,21.53
2019-03-30T01:47:37.511Z,20.17
2019-03-30T01:50:17.293Z,18.97
2019-03-30T01:52:39.229Z,16.30
2019-03-30T01:55:09.196Z,18.13
2019-03-30T01:57:37.776Z,21.83
2019-03-30T02:00:10.928Z,22.30
2019-03-30T02:02:39.574Z,20.10
2019-03-30T02:07:28.637Z,20.77
2019-03-30T02:09:57.651Z,20.20
2019-03-30T02:12:26.236Z,17.40
2019-03-30T02:14:54.873Z,19.20
2019-03-30T02:17:23.484Z,18.10
2019-03-30T02:19:52.097Z,13.80
2019-03-30T02:22:20.706Z,17.33
2019-03-30T02:24:49.411Z,13.53
2019-03-30T02:27:17.973Z,12.30
2019-03-30T02:29:48.093Z,16.63
2019-03-30T02:32:19.379Z,16.70
2019-03-30T02:34:47.999Z,19.53
2019-03-30T02:37:18.115Z,19.73
2019-03-30T02:39:48.260Z,18.20
2019-03-30T02:42:20.323Z,22.60
2019-03-30T02:44:48.881Z,24.77
2019-03-30T02:47:17.532Z,26.00
2019-03-30T02:49:49.527Z,19.50
2019-03-30T02:52:18.142Z,18.47
2019-03-30T02:54:49.942Z,26.20
2019-03-30T02:57:18.902Z,24.93
2019-03-30T02:59:47.593Z,31.30
2019-03-30T03:02:19.388Z,22.97
2019-03-30T03:04:48.012Z,22.90
2019-03-30T03:07:18.279Z,25.40
2019-03-30T03:09:47.099Z,21.07
2019-03-30T03:12:15.709Z,21.00
2019-03-30T03:14:44.632Z,16.00
2019-03-30T03:17:13.233Z,19.07
2019-03-30T03:19:41.848Z,18.00
2019-03-30T03:22:10.452Z,17.27
2019-03-30T03:24:39.061Z,24.97
2019-03-30T03:27:07.768Z,17.57
2019-03-30T03:29:36.487Z,19.47
2019-03-30T03:32:05.201Z,21.87
2019-03-30T03:34:33.884Z,26.03
2019-03-30T03:37:02.478Z,19.57
2019-03-30T03:39:31.061Z,17.27
2019-03-30T03:41:59.837Z,23.33
2019-03-30T03:44:28.424Z,20.03
2019-03-30T03:46:56.997Z,17.80
2019-03-30T03:49:25.656Z,20.60
2019-03-30T03:51:54.420Z,19.27
2019-03-30T03:54:23.159Z,19.87
2019-03-30T03:56:52.960Z,20.23
2019-03-30T03:59:23.885Z,19.33
2019-03-30T04:01:55.291Z,19.00
2019-03-30T04:04:27.465Z,19.93
2019-03-30T04:07:03.412Z,17.67
2019-03-30T04:09:34.672Z,22.30
2019-03-30T04:12:06.334Z,26.50
2019-03-30T04:14:37.404Z,24.10
2019-03-30T04:17:06.306Z,27.03
2019-03-30T04:19:34.883Z,22.67
2019-03-30T04:22:03.465Z,22.27
2019-03-30T04:24:32.047Z,26.50
2019-03-30T04:27:00.645Z,27.97
2019-03-30T04:29:29.204Z,26.60
2019-03-30T04:31:57.860Z,22.97
2019-03-30T04:34:26.483Z,29.83
2019-03-30T04:36:55.096Z,27.50
2019-03-30T04:39:23.662Z,32.20
2019-03-30T04:41:52.251Z,27.97
2019-03-30T04:44:20.853Z,43.70
2019-03-30T04:46:49.952Z,34.53
2019-03-30T04:49:18.532Z,31.80
2019-03-30T04:51:57.559Z,40.07
2019-03-30T04:54:17.848Z,34.57
2019-03-30T04:56:47.970Z,34.00
2019-03-30T04:59:18.216Z,32.33
2019-03-30T05:01:46.950Z,37.40
2019-03-30T05:04:15.510Z,32.37
2019-03-30T05:06:46.465Z,29.03
2019-03-30T05:09:15.157Z,29.73
2019-03-30T05:11:43.767Z,27.10
2019-03-30T05:14:12.399Z,27.10
2019-03-30T05:16:41.008Z,30.47
2019-03-30T05:19:09.632Z,31.60
2019-03-30T05:21:38.261Z,26.93
2019-03-30T05:24:06.854Z,27.30
2019-03-30T05:26:35.459Z,25.97
2019-03-30T05:29:04.070Z,30.33
2019-03-30T05:31:32.686Z,27.70
2019-03-30T05:34:01.243Z,29.80
2019-03-30T05:36:29.909Z,24.70
2019-03-30T05:38:58.524Z,21.10
2019-03-30T05:41:27.129Z,24.80
2019-03-30T05:43:55.703Z,24.33
2019-03-30T05:46:24.365Z,29.37
2019-03-30T05:48:52.981Z,25.33
2019-03-30T05:51:21.591Z,24.43
2019-03-30T05:53:50.212Z,22.20
2019-03-30T05:56:18.821Z,28.63
2019-03-30T05:58:47.432Z,24.10
2019-03-30T06:01:19.023Z,25.53
2019-03-30T06:03:47.582Z,23.57
2019-03-30T06:06:16.798Z,24.73
2019-03-30T06:08:45.832Z,29.10
2019-03-30T06:11:17.459Z,22.30
2019-03-30T06:13:48.828Z,20.37
2019-03-30T06:16:17.446Z,23.63
2019-03-30T06:18:48.835Z,24.13
2019-03-30T06:21:17.558Z,24.83
2019-03-30T06:23:48.888Z,28.37
2019-03-30T06:26:17.905Z,31.53
2019-03-30T06:28:48.133Z,30.43
2019-03-30T06:31:19.359Z,32.57
2019-03-30T06:33:48.028Z,27.33
2019-03-30T06:36:18.183Z,28.00
2019-03-30T06:38:49.571Z,24.70
2019-03-30T06:41:18.211Z,24.50
2019-03-30T06:43:49.764Z,27.57
2019-03-30T06:46:18.405Z,26.20
2019-03-30T06:48:47.022Z,23.67
2019-03-30T06:51:15.644Z,27.57
2019-03-30T06:53:46.523Z,25.40
2019-03-30T06:56:15.174Z,31.40
2019-03-30T06:58:43.798Z,30.27
2019-03-30T07:01:12.717Z,25.37
2019-03-30T07:03:41.671Z,28.53
2019-03-30T07:06:11.568Z,27.33
2019-03-30T07:08:42.688Z,30.37
2019-03-30T07:11:21.051Z,27.97
2019-03-30T07:13:46.027Z,23.23
2019-03-30T07:16:17.603Z,22.73
2019-03-30T07:18:46.932Z,25.03
2019-03-30T07:21:18.303Z,28.80
2019-03-30T07:23:49.793Z,26.00
2019-03-30T07:26:18.423Z,20.37
2019-03-30T07:28:47.416Z,25.23
2019-03-30T07:31:18.819Z,25.53
2019-03-30T07:33:47.429Z,26.33
2019-03-30T07:36:19.220Z,18.67
2019-03-30T07:38:47.832Z,27.07
2019-03-30T07:41:18.141Z,30.77
2019-03-30T07:43:49.664Z,27.23
2019-03-30T07:46:19.675Z,26.13
2019-03-30T07:48:48.647Z,25.43
2019-03-30T07:51:17.277Z,28.80
2019-03-30T07:53:47.417Z,27.83
2019-03-30T07:56:19.312Z,33.33
2019-03-30T07:58:48.196Z,27.23
2019-03-30T08:01:19.713Z,31.50
2019-03-30T08:03:48.322Z,28.90
2019-03-30T08:06:16.878Z,29.83
2019-03-30T08:08:45.642Z,28.37
2019-03-30T08:11:14.643Z,25.43
2019-03-30T08:13:43.208Z,28.20
2019-03-30T08:16:11.774Z,29.73
2019-03-30T08:18:40.387Z,25.87
2019-03-30T08:21:09.009Z,31.87
2019-03-30T08:23:40.693Z,27.20
2019-03-30T08:26:08.389Z,30.10
2019-03-30T08:28:37.001Z,28.27
2019-03-30T08:31:17.143Z,30.57
2019-03-30T08:33:48.951Z,24.90
2019-03-30T08:36:17.538Z,27.60
2019-03-30T08:38:48.993Z,33.70
2019-03-30T08:41:17.600Z,28.93
2019-03-30T08:43:46.843Z,32.13
2019-03-30T08:46:15.881Z,27.30
2019-03-30T08:48:47.225Z,25.50
2019-03-30T08:51:20.661Z,31.87
2019-03-30T08:53:54.362Z,29.00
2019-03-30T08:56:18.186Z,28.10
2019-03-30T08:58:49.584Z,27.40
2019-03-30T09:01:18.620Z,27.00
2019-03-30T09:03:47.485Z,27.27
2019-03-30T09:06:18.820Z,25.40
2019-03-30T09:08:47.451Z,27.53
2019-03-30T09:11:19.142Z,25.40
2019-03-30T09:13:47.781Z,29.00
2019-03-30T09:16:16.372Z,27.30
2019-03-30T09:18:45.093Z,24.53
2019-03-30T09:21:13.853Z,30.43
2019-03-30T09:23:42.549Z,23.00
2019-03-30T09:26:11.164Z,24.07
2019-03-30T09:28:39.786Z,25.40
2019-03-30T09:31:08.365Z,24.20
2019-03-30T09:33:37.014Z,28.13
2019-03-30T09:36:05.643Z,23.03
2019-03-30T09:38:34.659Z,23.10
2019-03-30T09:41:03.269Z,21.83
2019-03-30T09:43:31.901Z,22.00
2019-03-30T09:46:00.522Z,18.70
2019-03-30T09:48:29.079Z,19.47
2019-03-30T09:50:57.673Z,18.80
2019-03-30T09:53:26.274Z,17.10
2019-03-30T09:55:55.294Z,16.60
2019-03-30T09:58:24.012Z,19.50
2019-03-30T10:00:52.665Z,23.67
2019-03-30T10:03:21.237Z,19.67
2019-03-30T10:05:49.854Z,15.83
2019-03-30T10:08:18.460Z,19.10
2019-03-30T10:10:47.174Z,18.17
2019-03-30T10:13:17.340Z,15.60
2019-03-30T10:15:47.488Z,16.90
2019-03-30T10:18:19.485Z,17.53
2019-03-30T10:20:48.099Z,22.33
2019-03-30T10:23:18.202Z,21.00
2019-03-30T10:25:49.738Z,18.90
2019-03-30T10:28:18.450Z,24.70
2019-03-30T10:30:47.174Z,19.37
2019-03-30T10:33:17.334Z,16.40
2019-03-30T10:35:47.482Z,17.27
2019-03-30T10:38:19.384Z,16.30
2019-03-30T10:40:48.095Z,18.70
2019-03-30T10:43:18.193Z,17.20
2019-03-30T10:45:49.794Z,13.00
2019-03-30T10:48:18.391Z,16.07
2019-03-30T10:50:47.006Z,13.83
2019-03-30T10:53:15.927Z,15.40
2019-03-30T10:55:47.421Z,10.20
2019-03-30T10:58:17.508Z,13.03
2019-03-30T11:00:49.426Z,12.20
2019-03-30T11:03:18.403Z,11.00
2019-03-30T11:05:47.017Z,11.03
2019-03-30T11:08:15.666Z,10.07
2019-03-30T11:10:44.553Z,12.27
2019-03-30T11:13:13.160Z,10.13
2019-03-30T11:15:41.722Z,7.50
2019-03-30T11:18:10.719Z,14.03
2019-03-30T11:20:39.270Z,9.27
2019-03-30T11:23:07.920Z,12.30
2019-03-30T11:25:36.662Z,12.97
2019-03-30T11:28:05.264Z,16.53
2019-03-30T11:30:33.875Z,12.93
2019-03-30T11:33:02.506Z,11.70
2019-03-30T11:35:31.324Z,11.73
2019-03-30T11:37:59.943Z,12.63
2019-03-30T11:40:28.667Z,11.60
2019-03-30T11:42:57.295Z,9.47
2019-03-30T11:45:26.007Z,14.27
2019-03-30T11:47:54.625Z,10.17
2019-03-30T11:50:23.244Z,13.27
2019-03-30T11:52:51.853Z,11.03
2019-03-30T11:55:22.487Z,12.40
2019-03-30T11:57:51.324Z,10.63
2019-03-30T12:00:20.017Z,15.60
2019-03-30T12:02:48.894Z,15.03
2019-03-30T12:05:17.666Z,10.30
2019-03-30T12:07:46.314Z,9.40
2019-03-30T12:10:15.087Z,10.00
2019-03-30T12:12:43.702Z,14.10
2019-03-30T12:15:12.309Z,17.10
2019-03-30T12:17:41.463Z,14.80
2019-03-30T12:20:10.484Z,12.73
2019-03-30T12:22:39.062Z,14.00
2019-03-30T12:25:07.953Z,11.80
2019-03-30T12:27:36.553Z,17.53
2019-03-30T12:30:06.765Z,16.33
2019-03-30T12:32:35.342Z,10.63
2019-03-30T12:35:05.239Z,14.13
2019-03-30T12:37:34.206Z,11.20
2019-03-30T12:40:02.888Z,12.90
2019-03-30T12:42:31.495Z,10.37
2019-03-30T12:45:00.355Z,11.10
2019-03-30T12:47:29.333Z,9.40
2019-03-30T12:49:57.949Z,14.90
2019-03-30T12:52:26.702Z,10.20
2019-03-30T12:54:55.270Z,13.50
2019-03-30T12:57:23.883Z,13.30
2019-03-30T12:59:52.499Z,13.73
2019-03-30T13:02:21.204Z,9.60
2019-03-30T13:04:49.851Z,14.57
2019-03-30T13:07:18.431Z,10.80
2019-03-30T13:09:47.040Z,11.87
2019-03-30T13:12:15.601Z,10.23
2019-03-30T13:14:46.473Z,9.33
2019-03-30T13:17:15.436Z,12.33
2019-03-30T13:19:44.427Z,8.33
2019-03-30T13:22:12.983Z,11.50
2019-03-30T13:24:41.792Z,11.80
2019-03-30T13:27:12.905Z,13.90
2019-03-30T13:29:40.696Z,9.50
2019-03-30T13:32:09.395Z,13.93
2019-03-30T13:34:37.980Z,8.63
2019-03-30T13:37:20.156Z,12.70
2019-03-30T13:39:48.738Z,10.10
2019-03-30T13:42:17.359Z,8.07
2019-03-30T13:44:47.506Z,12.67
2019-03-30T13:47:19.093Z,10.80
2019-03-30T13:49:47.706Z,14.03
2019-03-30T13:52:16.312Z,12.10
2019-03-30T13:54:47.184Z,10.70
2019-03-30T13:57:17.351Z,13.87
2019-03-30T13:59:47.936Z,15.27
2019-03-30T14:02:18.431Z,11.20
2019-03-30T14:04:47.109Z,12.10
2019-03-30T14:07:15.837Z,12.20
2019-03-30T14:09:45.274Z,14.20
2019-03-30T14:12:13.839Z,15.13
2019-03-30T14:14:42.421Z,17.73
2019-03-30T14:17:10.981Z,12.10
2019-03-30T14:19:39.568Z,12.03
2019-03-30T14:22:08.134Z,17.70
2019-03-30T14:24:36.710Z,12.57
2019-03-30T14:27:05.271Z,12.00
2019-03-30T14:29:33.944Z,10.77
2019-03-30T14:32:02.581Z,15.40
2019-03-30T14:34:31.289Z,12.30
2019-03-30T14:36:59.851Z,15.40
2019-03-30T14:39:28.403Z,12.00
2019-03-30T14:41:56.978Z,13.90
2019-03-30T14:44:25.813Z,12.03
2019-03-30T14:46:54.540Z,11.20
2019-03-30T14:49:23.148Z,17.33
2019-03-30T14:51:51.962Z,13.00
2019-03-30T14:54:20.522Z,13.33
2019-03-30T14:56:49.095Z,15.97
2019-03-30T14:59:17.708Z,14.17
2019-03-30T15:01:46.848Z,13.93
2019-03-30T15:04:18.735Z,12.43
2019-03-30T15:06:47.354Z,13.57
2019-03-30T15:09:17.618Z,14.17
2019-03-30T15:11:46.264Z,12.87
2019-03-30T15:14:16.458Z,17.23
2019-03-30T15:16:45.402Z,16.50
2019-03-30T15:19:14.027Z,17.60
2019-03-30T15:21:42.611Z,17.17
2019-03-30T15:24:11.225Z,16.20
2019-03-30T15:26:40.183Z,14.90
2019-03-30T15:29:08.743Z,17.07
2019-03-30T15:31:37.328Z,15.67
2019-03-30T15:34:05.874Z,15.70
2019-03-30T15:36:34.473Z,15.67
2019-03-30T15:39:03.112Z,18.63
2019-03-30T15:41:31.702Z,18.70
2019-03-30T15:44:00.270Z,17.43
2019-03-30T15:46:29.397Z,16.43
2019-03-30T15:48:58.004Z,18.40
2019-03-30T15:51:26.596Z,21.07
2019-03-30T15:53:55.532Z,19.20
2019-03-30T15:56:24.115Z,15.90
2019-03-30T15:58:52.749Z,18.40
2019-03-30T16:01:21.336Z,17.00
2019-03-30T16:03:49.999Z,20.23
2019-03-30T16:06:18.583Z,14.87
2019-03-30T16:08:47.315Z,14.93
2019-03-30T16:11:17.414Z,15.80
2019-03-30T16:13:49.399Z,18.50
2019-03-30T16:16:18.391Z,19.07
2019-03-30T16:18:47.413Z,18.60
2019-03-30T16:21:18.800Z,16.30
2019-03-30T16:23:47.614Z,14.90
2019-03-30T16:26:16.323Z,19.93
2019-03-30T16:28:46.571Z,16.20
2019-03-30T16:31:17.953Z,15.20
2019-03-30T16:33:48.209Z,13.83
2019-03-30T16:36:17.130Z,18.17
2019-03-30T16:38:47.294Z,18.63
2019-03-30T16:41:17.367Z,19.60
2019-03-30T16:43:46.065Z,19.13
2019-03-30T16:46:14.893Z,18.37
2019-03-30T16:48:45.381Z,18.80
2019-03-30T16:51:14.211Z,21.83
2019-03-30T16:53:43.233Z,18.87
2019-03-30T16:56:11.957Z,20.13
2019-03-30T16:58:40.574Z,16.97
2019-03-30T17:01:09.183Z,23.00
2019-03-30T17:03:37.790Z,20.70
2019-03-30T17:06:06.411Z,18.67
2019-03-30T17:08:35.121Z,17.60
2019-03-30T17:11:03.695Z,18.87
2019-03-30T17:13:32.351Z,15.07
2019-03-30T17:16:00.964Z,18.90
2019-03-30T17:18:29.572Z,19.10
2019-03-30T17:20:58.310Z,19.07
2019-03-30T17:23:27.301Z,23.70
2019-03-30T17:25:56.319Z,22.63
2019-03-30T17:28:24.912Z,20.03
2019-03-30T17:30:53.484Z,24.40
2019-03-30T17:33:22.487Z,23.50
2019-03-30T17:35:51.053Z,25.80
2019-03-30T17:38:19.679Z,22.37
2019-03-30T17:40:48.406Z,29.20
2019-03-30T17:43:17.000Z,23.70
2019-03-30T17:45:45.726Z,23.33
2019-03-30T17:48:17.436Z,27.23
2019-03-30T17:50:48.703Z,28.53
2019-03-30T17:53:17.304Z,23.63
2019-03-30T17:55:47.400Z,23.15
2019-03-30T17:58:17.484Z,24.80
2019-03-30T18:00:49.061Z,21.73
2019-03-30T18:03:17.644Z,21.20
2019-03-30T18:05:48.985Z,21.47
2019-03-30T18:08:17.578Z,21.00
2019-03-30T18:10:48.830Z,21.50
2019-03-30T18:13:17.410Z,21.80
2019-03-30T18:15:46.162Z,20.53
2019-03-30T18:18:16.421Z,19.83
2019-03-30T18:20:45.441Z,18.90
2019-03-30T18:23:14.568Z,22.40
2019-03-30T18:25:43.273Z,21.23
2019-03-30T18:28:26.172Z,23.37
2019-03-30T18:30:42.583Z,21.93
2019-03-30T18:33:11.159Z,27.20
2019-03-30T18:35:41.124Z,28.60
2019-03-30T18:38:12.997Z,25.70
2019-03-30T18:40:40.711Z,27.27
2019-03-30T18:43:10.990Z,25.77
2019-03-30T18:45:39.574Z,24.90
2019-03-30T18:48:15.866Z,26.37
2019-03-30T18:50:45.896Z,27.63
2019-03-30T18:53:16.203Z,23.83
2019-03-30T18:55:46.485Z,23.43
2019-03-30T18:58:15.309Z,30.70
2019-03-30T19:00:44.344Z,29.90
2019-03-30T19:03:13.107Z,21.00
2019-03-30T19:05:41.718Z,21.23
2019-03-30T19:08:10.761Z,18.60
2019-03-30T19:10:39.414Z,22.90
2019-03-30T19:13:07.984Z,20.93
2019-03-30T19:15:36.924Z,21.10
2019-03-30T19:18:05.656Z,23.90
2019-03-30T19:20:34.327Z,21.60
2019-03-30T19:23:02.958Z,19.77
2019-03-30T19:25:31.670Z,24.33
2019-03-30T19:28:00.359Z,19.43
2019-03-30T19:30:29.026Z,18.77
2019-03-30T19:32:57.647Z,21.27
2019-03-30T19:35:26.270Z,25.27
2019-03-30T19:37:54.878Z,22.50
2019-03-30T19:40:23.505Z,22.73
2019-03-30T19:42:52.131Z,17.10
2019-03-30T19:45:20.838Z,19.63
2019-03-30T19:47:49.460Z,23.27
2019-03-30T19:50:18.082Z,23.17
2019-03-30T19:52:49.377Z,23.70
2019-03-30T19:55:18.090Z,20.87
2019-03-30T19:57:49.386Z,22.17
2019-03-30T20:00:18.518Z,33.60
2019-03-30T20:02:47.161Z,21.30
2019-03-30T20:05:17.430Z,22.33
2019-03-30T20:07:49.011Z,27.53
2019-03-30T20:10:18.173Z,23.23
2019-03-30T20:12:49.525Z,34.20
2019-03-30T20:15:18.244Z,33.60
2019-03-30T20:17:49.572Z,26.70
2019-03-30T20:20:18.168Z,22.37
2019-03-30T20:22:49.659Z,19.23
2019-03-30T20:25:18.274Z,25.33
2019-03-30T20:27:49.891Z,19.47
2019-03-30T20:30:18.892Z,19.77
2019-03-30T20:32:47.606Z,22.50
2019-03-30T20:35:18.800Z,25.07
2019-03-30T20:37:47.736Z,18.50
2019-03-30T20:40:16.794Z,21.77
2019-03-30T20:42:48.496Z,22.63
2019-03-30T20:45:17.833Z,23.20
2019-03-30T20:47:46.567Z,22.53
2019-03-30T20:50:15.476Z,22.60
2019-03-30T20:52:44.605Z,25.10
2019-03-30T20:55:13.725Z,19.10
2019-03-30T20:57:42.352Z,19.60
2019-03-30T21:00:11.918Z,22.67
2019-03-30T21:02:40.601Z,22.20
2019-03-30T21:05:09.626Z,19.17
2019-03-30T21:07:41.669Z,26.33
2019-03-30T21:10:10.744Z,23.83
2019-03-30T21:12:39.409Z,25.27
2019-03-30T21:15:08.555Z,22.80
2019-03-30T21:17:37.259Z,22.73
2019-03-30T21:20:06.998Z,25.00
2019-03-30T21:22:35.803Z,22.40
2019-03-30T21:25:05.798Z,27.10
2019-03-30T21:27:34.454Z,23.40
2019-03-30T21:30:04.835Z,22.30
2019-03-30T21:32:33.461Z,29.30
2019-03-30T21:35:02.094Z,19.13
2019-03-30T21:37:30.742Z,21.70
2019-03-30T21:39:59.343Z,23.83
2019-03-30T21:42:27.953Z,22.70
2019-03-30T21:44:56.774Z,21.00
2019-03-30T21:47:25.383Z,20.60
2019-03-30T21:49:53.992Z,20.20
2019-03-30T21:52:22.574Z,20.87
2019-03-30T21:54:51.209Z,21.20
2019-03-30T21:57:19.922Z,20.57
2019-03-30T21:59:48.533Z,19.37
2019-03-30T22:02:17.282Z,18.73
2019-03-30T22:04:47.399Z,20.63
2019-03-30T22:07:16.439Z,25.73
2019-03-30T22:09:45.356Z,23.40
2019-03-30T22:12:14.046Z,25.70
2019-03-30T22:14:43.089Z,19.67
2019-03-30T22:17:11.702Z,17.50
2019-03-30T22:19:40.330Z,20.90
2019-03-30T22:22:09.029Z,20.20
2019-03-30T22:24:37.629Z,21.30
2019-03-30T22:27:06.244Z,22.17
2019-03-30T22:29:34.831Z,26.77
2019-03-30T22:32:03.784Z,27.53
2019-03-30T22:34:32.397Z,30.10
2019-03-30T22:37:01.004Z,39.80
2019-03-30T22:39:29.613Z,39.53
2019-03-30T22:41:58.550Z,40.13
2019-03-30T22:44:27.164Z,37.17
2019-03-30T22:46:55.773Z,34.30
2019-03-30T22:49:24.362Z,37.13
2019-03-30T22:51:53.004Z,33.30
2019-03-30T22:54:21.620Z,33.30
2019-03-30T22:56:50.635Z,35.70
2019-03-30T22:59:19.247Z,35.70
2019-03-30T23:01:48.264Z,29.80
2019-03-30T23:04:19.868Z,29.10
2019-03-30T23:06:48.422Z,25.10
2019-03-30T23:09:18.109Z,28.83
2019-03-30T23:11:48.198Z,27.90
2019-03-30T23:14:19.468Z,31.30
2019-03-30T23:16:48.074Z,29.50
2019-03-30T23:19:18.328Z,36.27
2019-03-30T23:21:49.823Z,32.80
2019-03-30T23:24:18.428Z,29.30
2019-03-30T23:26:47.046Z,33.73
2019-03-30T23:29:15.934Z,30.50
2019-03-30T23:31:44.582Z,38.43
2019-03-30T23:34:13.191Z,30.93
2019-03-30T23:36:41.794Z,32.20
2019-03-30T23:39:10.454Z,32.23
2019-03-30T23:41:39.116Z,30.10
2019-03-30T23:44:07.727Z,33.80
2019-03-30T23:46:36.338Z,41.40
2019-03-30T23:49:05.051Z,35.23
2019-03-30T23:51:33.656Z,40.80
2019-03-30T23:54:02.268Z,33.17
2019-03-30T23:56:30.879Z,32.10
2019-03-30T23:58:59.498Z,33.03
